Time;durP1;ratioP1;P1;durP2;ratioP2;P2;SDS_P1;SDS_P2;PMS_P1;PMS_P2;Temp;Humidity;BMP_temperature;BMP_pressure;BME280_temperature;BME280_humidity;BME280_pressure;Samples;Min_cycle;Max_cycle;Signal;HPM_P1;HPM_P2
2022/01/04 00:01:32;;;;;;;5.47;1.90;;;5.90;99.90;;;;;;5159120;28;20543;-49
2022/01/04 00:04:03;;;;;;;2.27;2.07;;;5.90;99.90;;;;;;5139753;28;20176;-47
2022/01/04 00:06:33;;;;;;;1.67;1.57;;;6.00;99.90;;;;;;5153673;28;20216;-49
2022/01/04 00:09:05;;;;;;;10.00;2.53;;;6.10;99.90;;;;;;5155509;23;20357;-51
2022/01/04 00:14:12;;;;;;;3.90;1.33;;;6.20;99.90;;;;;;5187396;28;20438;-50
2022/01/04 00:16:44;;;;;;;3.10;1.60;;;6.30;99.90;;;;;;5188226;28;20461;-51
2022/01/04 00:19:14;;;;;;;5.50;1.70;;;6.30;99.90;;;;;;5186304;28;21008;-51
2022/01/04 00:21:45;;;;;;;2.60;1.50;;;6.30;99.90;;;;;;5173430;28;20467;-50
2022/01/04 00:24:15;;;;;;;6.80;2.00;;;6.40;99.90;;;;;;5169866;28;20594;-53
2022/01/04 00:26:46;;;;;;;6.27;1.07;;;6.40;99.90;;;;;;5188886;28;20208;-51
2022/01/04 00:29:16;;;;;;;5.40;2.40;;;6.40;99.90;;;;;;5188416;28;20236;-50
2022/01/04 00:31:47;;;;;;;3.47;2.90;;;6.50;99.90;;;;;;5187802;28;20267;-51
2022/01/04 00:34:17;;;;;;;5.30;2.60;;;6.50;99.90;;;;;;5187327;28;20260;-49
2022/01/04 00:36:48;;;;;;;4.03;2.50;;;6.40;99.90;;;;;;5186375;28;20264;-50
2022/01/04 00:39:18;;;;;;;10.93;3.00;;;6.50;99.90;;;;;;5186994;28;20234;-51
2022/01/04 00:41:49;;;;;;;19.10;3.43;;;6.40;99.90;;;;;;5187036;28;20620;-49
2022/01/04 00:44:19;;;;;;;2.47;2.27;;;6.40;99.90;;;;;;5185817;28;20180;-50
2022/01/04 00:46:50;;;;;;;2.63;2.37;;;6.40;99.90;;;;;;5195731;28;20220;-50
2022/01/04 00:49:22;;;;;;;3.47;2.00;;;6.40;99.90;;;;;;5175810;28;20230;-51
2022/01/04 00:51:53;;;;;;;2.90;1.90;;;6.40;99.90;;;;;;5186431;28;20183;-50
2022/01/04 00:54:24;;;;;;;3.10;1.57;;;6.30;99.90;;;;;;5185260;28;20415;-50
2022/01/04 00:56:55;;;;;;;3.00;1.90;;;6.30;99.90;;;;;;5186383;28;20430;-49
2022/01/04 00:59:25;;;;;;;15.30;2.40;;;6.30;99.90;;;;;;5168448;28;20220;-50
2022/01/04 01:01:56;;;;;;;3.67;1.73;;;6.30;99.90;;;;;;5168164;28;20674;-52
2022/01/04 01:04:26;;;;;;;2.80;1.47;;;6.30;99.90;;;;;;5168116;28;20192;-49
2022/01/04 01:06:57;;;;;;;1.90;1.80;;;6.20;99.90;;;;;;5188849;28;20699;-51
2022/01/04 01:09:31;;;;;;;2.83;1.37;;;6.20;99.90;;;;;;5172559;28;20216;-52
2022/01/04 01:12:02;;;;;;;6.50;1.70;;;6.20;99.90;;;;;;5189108;28;20180;-51
2022/01/04 01:14:33;;;;;;;3.63;1.10;;;6.20;99.90;;;;;;5171572;28;20999;-51
2022/01/04 01:17:03;;;;;;;2.53;1.43;;;6.20;99.90;;;;;;5170708;28;20184;-51
2022/01/04 01:19:36;;;;;;;4.53;1.40;;;6.20;99.90;;;;;;5188411;28;20549;-51
2022/01/04 01:22:06;;;;;;;9.73;1.70;;;6.20;99.90;;;;;;5190374;28;20192;-52
2022/01/04 01:24:37;;;;;;;1.33;1.07;;;6.20;99.90;;;;;;5189053;28;20569;-50
2022/01/04 01:27:07;;;;;;;6.03;1.20;;;6.20;99.90;;;;;;5171816;28;20287;-51
2022/01/04 01:29:38;;;;;;;8.20;1.00;;;6.20;99.90;;;;;;5170663;28;20406;-50
2022/01/04 01:32:10;;;;;;;1.67;1.30;;;6.20;99.90;;;;;;5188671;28;20181;-51
2022/01/04 01:34:42;;;;;;;1.20;0.90;;;6.30;99.90;;;;;;5187585;28;20176;-51
2022/01/04 01:37:12;;;;;;;2.33;1.70;;;6.30;99.90;;;;;;5188401;28;20513;-51
2022/01/04 01:39:43;;;;;;;1.30;1.20;;;6.30;99.90;;;;;;5190951;28;20541;-52
2022/01/04 01:42:14;;;;;;;3.40;1.20;;;6.30;99.90;;;;;;5192068;28;20184;-50
2022/01/04 01:44:44;;;;;;;5.77;1.70;;;6.40;99.90;;;;;;5191648;28;20196;-50
2022/01/04 01:47:15;;;;;;;2.00;0.80;;;6.40;99.90;;;;;;5194363;28;20212;-49
2022/01/04 01:49:46;;;;;;;1.20;1.10;;;6.40;99.90;;;;;;5187257;28;20605;-50
2022/01/04 01:52:17;;;;;;;8.80;0.90;;;6.40;99.90;;;;;;5191101;28;20195;-50
2022/01/04 01:54:48;;;;;;;4.60;0.80;;;6.40;99.90;;;;;;5176433;28;20423;-50
2022/01/04 01:57:19;;;;;;;0.90;0.90;;;6.30;99.90;;;;;;5190553;28;20497;-52
2022/01/04 01:59:49;;;;;;;1.93;1.20;;;6.30;99.90;;;;;;5190522;28;20275;-51
2022/01/04 02:02:20;;;;;;;1.57;1.00;;;6.30;99.90;;;;;;5190423;28;20192;-49
2022/01/04 02:04:51;;;;;;;1.10;1.10;;;6.30;99.90;;;;;;5173059;28;20434;-50
2022/01/04 02:07:23;;;;;;;2.40;1.07;;;6.30;99.90;;;;;;5190687;28;20207;-51
2022/01/04 02:10:02;;;;;;;1.33;1.03;;;6.30;99.90;;;;;;5171517;28;20394;-50
2022/01/04 02:12:36;;;;;;;1.90;1.30;;;6.30;99.90;;;;;;5190547;28;20909;-49
2022/01/04 02:15:09;;;;;;;1.60;1.10;;;6.40;99.90;;;;;;5172969;28;20415;-49
2022/01/04 02:17:40;;;;;;;1.53;0.80;;;6.30;99.90;;;;;;5192161;28;20533;-51
2022/01/04 02:20:12;;;;;;;0.80;0.80;;;6.20;99.90;;;;;;5172730;28;20458;-50
2022/01/04 02:22:43;;;;;;;1.00;1.00;;;6.20;99.90;;;;;;5173642;28;20187;-51
2022/01/04 02:25:13;;;;;;;2.80;1.37;;;6.20;99.90;;;;;;5187822;28;20822;-52
2022/01/04 02:27:44;;;;;;;2.13;0.83;;;6.10;99.90;;;;;;5188362;28;20443;-51
2022/01/04 02:30:17;;;;;;;2.47;0.80;;;6.10;99.90;;;;;;5194639;28;20197;-50
2022/01/04 02:32:49;;;;;;;1.80;1.20;;;6.10;99.90;;;;;;5192273;28;20191;-51
2022/01/04 02:35:23;;;;;;;1.03;0.60;;;6.10;99.90;;;;;;5192362;28;20992;-51
2022/01/04 02:37:59;;;;;;;0.93;0.80;;;6.10;99.90;;;;;;5174170;28;20439;-50
2022/01/04 02:40:31;;;;;;;1.93;1.07;;;6.10;99.90;;;;;;5164164;28;20485;-51
2022/01/04 02:43:02;;;;;;;1.93;1.40;;;6.10;99.90;;;;;;5167176;28;20614;-51
2022/01/04 02:45:32;;;;;;;4.03;2.00;;;6.10;99.90;;;;;;5168435;28;20542;-50
2022/01/04 02:48:03;;;;;;;1.07;0.83;;;6.10;99.90;;;;;;5192803;28;20235;-51
2022/01/04 02:50:33;;;;;;;7.17;1.00;;;6.10;99.90;;;;;;5170702;28;20227;-51
2022/01/04 02:53:04;;;;;;;2.93;1.47;;;6.10;99.90;;;;;;5172717;28;20266;-50
2022/01/04 02:55:35;;;;;;;2.00;0.70;;;6.10;99.90;;;;;;5189117;28;20200;-51
2022/01/04 02:58:05;;;;;;;2.70;1.00;;;6.10;99.90;;;;;;5177631;28;20191;-50
2022/01/04 03:00:36;;;;;;;2.70;0.83;;;6.10;99.90;;;;;;5171204;28;20211;-50
2022/01/04 03:03:06;;;;;;;6.30;1.20;;;6.10;99.90;;;;;;5160271;28;20192;-49
2022/01/04 03:05:37;;;;;;;0.70;0.70;;;6.10;99.90;;;;;;5190487;28;20203;-51
2022/01/04 03:08:07;;;;;;;2.40;0.80;;;6.10;99.90;;;;;;5168248;28;20180;-50
2022/01/04 03:10:38;;;;;;;3.27;1.23;;;6.10;99.90;;;;;;5172245;28;20223;-50
2022/01/04 03:13:09;;;;;;;1.50;0.80;;;6.20;99.90;;;;;;5187748;28;20659;-50
2022/01/04 03:15:40;;;;;;;1.80;1.00;;;6.10;99.90;;;;;;5187473;28;20184;-51
2022/01/04 03:18:10;;;;;;;1.40;1.00;;;6.10;99.90;;;;;;5187729;28;20946;-50
2022/01/04 03:20:41;;;;;;;1.17;1.07;;;6.10;99.90;;;;;;5172964;28;20298;-51
2022/01/04 03:23:12;;;;;;;4.67;0.97;;;6.10;99.90;;;;;;5187061;28;20192;-51
2022/01/04 03:25:42;;;;;;;2.00;0.93;;;6.10;99.90;;;;;;5172538;28;20615;-49
2022/01/04 03:28:14;;;;;;;0.90;0.90;;;6.20;99.90;;;;;;5165253;28;20185;-51
2022/01/04 03:30:45;;;;;;;5.40;1.40;;;6.20;99.90;;;;;;5182597;28;20187;-51
2022/01/04 03:33:15;;;;;;;2.67;0.60;;;6.20;99.90;;;;;;5168264;28;20415;-50
2022/01/04 03:35:46;;;;;;;0.73;0.73;;;6.10;99.90;;;;;;5159108;28;20267;-51
2022/01/04 03:38:17;;;;;;;2.20;1.10;;;6.10;99.90;;;;;;5186460;28;20203;-50
2022/01/04 03:40:48;;;;;;;2.30;1.10;;;6.10;99.90;;;;;;5186343;28;20191;-51
2022/01/04 03:43:18;;;;;;;0.80;0.80;;;6.10;99.90;;;;;;5186950;28;20940;-50
2022/01/04 03:45:49;;;;;;;1.73;1.33;;;6.10;99.90;;;;;;5186554;28;20212;-50
2022/01/04 03:48:20;;;;;;;1.20;1.13;;;6.10;99.90;;;;;;5178126;28;20649;-50
2022/01/04 03:50:50;;;;;;;1.40;0.70;;;6.10;99.90;;;;;;5186690;28;20432;-51
2022/01/04 03:53:21;;;;;;;1.07;0.97;;;6.10;99.90;;;;;;5186073;28;20257;-52
2022/01/04 03:55:51;;;;;;;3.47;0.90;;;6.10;99.90;;;;;;5186226;28;20195;-51
2022/01/04 03:58:22;;;;;;;0.97;0.93;;;6.10;99.90;;;;;;5185761;28;20191;-50
2022/01/04 04:00:53;;;;;;;1.00;0.80;;;6.10;99.90;;;;;;5184901;28;20184;-51
2022/01/04 04:03:23;;;;;;;1.63;1.27;;;6.10;99.90;;;;;;5187028;28;20824;-51
2022/01/04 04:05:54;;;;;;;0.80;0.80;;;6.10;99.90;;;;;;5168804;28;20208;-51
2022/01/04 04:08:25;;;;;;;2.97;1.33;;;6.10;99.90;;;;;;5167797;28;20727;-51
2022/01/04 04:10:56;;;;;;;4.87;1.03;;;6.20;99.90;;;;;;5179608;28;20204;-50
2022/01/04 04:13:26;;;;;;;2.67;0.90;;;6.10;99.90;;;;;;5184305;28;20446;-52
2022/01/04 04:15:57;;;;;;;0.70;0.63;;;6.10;99.90;;;;;;5168565;28;20199;-50
2022/01/04 04:18:28;;;;;;;6.00;1.60;;;6.10;99.90;;;;;;5186574;28;20237;-51
2022/01/04 04:20:58;;;;;;;1.23;0.80;;;6.10;99.90;;;;;;5188622;28;20188;-50
2022/01/04 04:23:29;;;;;;;2.77;1.17;;;6.10;99.90;;;;;;5188634;28;20195;-50
2022/01/04 04:26:00;;;;;;;5.37;1.40;;;6.20;99.90;;;;;;5186808;28;20310;-50
2022/01/04 04:28:31;;;;;;;3.37;1.13;;;6.30;99.90;;;;;;5186092;28;20719;-48
2022/01/04 04:31:03;;;;;;;1.40;1.30;;;6.40;99.90;;;;;;5185376;28;20437;-50
2022/01/04 04:33:34;;;;;;;1.90;1.30;;;6.30;99.90;;;;;;5186780;28;20175;-51
2022/01/04 04:36:04;;;;;;;1.73;1.17;;;6.20;99.90;;;;;;5185713;28;20435;-51
2022/01/04 04:38:36;;;;;;;7.40;1.27;;;6.10;99.90;;;;;;5185097;28;20473;-51
2022/01/04 04:41:06;;;;;;;1.60;1.50;;;6.10;99.90;;;;;;5167441;28;20275;-51
2022/01/04 04:43:37;;;;;;;1.37;1.27;;;6.50;99.90;;;;;;5184693;28;20577;-49
2022/01/04 04:46:08;;;;;;;1.73;1.50;;;6.40;99.90;;;;;;5169279;28;20208;-50
2022/01/04 04:48:38;;;;;;;1.70;1.10;;;6.20;99.90;;;;;;5174850;28;20203;-50
2022/01/04 04:51:09;;;;;;;2.83;0.97;;;6.30;99.90;;;;;;5185572;28;20239;-51
2022/01/04 04:53:39;;;;;;;1.20;1.20;;;6.20;99.90;;;;;;5159482;28;20227;-49
2022/01/04 04:56:10;;;;;;;3.53;1.47;;;6.20;99.90;;;;;;5185294;28;20196;-50
2022/01/04 04:58:41;;;;;;;8.07;1.70;;;6.30;99.90;;;;;;5184129;28;20204;-51
2022/01/04 05:01:11;;;;;;;1.33;1.23;;;6.30;99.90;;;;;;5185153;28;20449;-52
2022/01/04 05:03:42;;;;;;;1.60;1.40;;;6.20;99.90;;;;;;5167769;28;20185;-52
2022/01/04 05:06:13;;;;;;;1.20;1.10;;;6.10;99.90;;;;;;5184745;28;20668;-51
2022/01/04 05:08:43;;;;;;;1.80;1.70;;;6.10;99.90;;;;;;5184845;28;20679;-51
2022/01/04 05:11:14;;;;;;;1.17;1.17;;;6.00;99.90;;;;;;5185108;28;20739;-50
2022/01/04 05:13:44;;;;;;;2.47;1.87;;;5.90;99.90;;;;;;5183595;28;20284;-51
2022/01/04 05:16:15;;;;;;;3.23;1.53;;;5.90;99.90;;;;;;5169818;28;20191;-49
2022/01/04 05:18:46;;;;;;;4.83;1.50;;;5.90;99.90;;;;;;5167992;28;20295;-50
2022/01/04 05:21:16;;;;;;;4.23;1.83;;;5.90;99.90;;;;;;5186578;28;20203;-50
2022/01/04 05:23:47;;;;;;;4.93;2.83;;;5.90;99.90;;;;;;5185176;28;20192;-49
2022/01/04 05:26:17;;;;;;;6.53;4.70;;;5.90;99.90;;;;;;5184633;28;20299;-51
2022/01/04 05:28:48;;;;;;;2.40;2.30;;;6.10;99.90;;;;;;5185031;28;20207;-50
2022/01/04 05:31:18;;;;;;;2.50;2.40;;;6.00;99.90;;;;;;5181904;28;20854;-50
2022/01/04 05:33:49;;;;;;;2.47;2.27;;;6.00;99.90;;;;;;5187265;28;20681;-50
2022/01/04 05:36:19;;;;;;;3.60;1.80;;;6.00;99.90;;;;;;5187513;28;20222;-53
2022/01/04 05:38:50;;;;;;;3.53;2.20;;;6.00;99.90;;;;;;5188126;28;20695;-51
2022/01/04 05:41:20;;;;;;;3.63;1.70;;;6.00;99.90;;;;;;5188165;28;20184;-51
2022/01/04 05:43:51;;;;;;;2.33;1.70;;;6.00;99.90;;;;;;5185653;28;20616;-50
2022/01/04 05:46:21;;;;;;;4.20;1.77;;;6.00;99.90;;;;;;5170345;28;20207;-51
2022/01/04 05:48:52;;;;;;;1.37;1.27;;;6.20;99.90;;;;;;5186169;28;20619;-50
2022/01/04 05:51:22;;;;;;;3.00;2.70;;;6.20;99.90;;;;;;5185361;28;20674;-50
2022/01/04 05:53:53;;;;;;;4.07;2.70;;;6.10;99.90;;;;;;5187080;28;20238;-52
2022/01/04 05:56:23;;;;;;;2.37;1.93;;;6.10;99.90;;;;;;5167706;28;20212;-51
2022/01/04 05:58:54;;;;;;;3.50;2.33;;;6.20;99.90;;;;;;5186227;28;20212;-50
2022/01/04 06:01:25;;;;;;;2.73;2.17;;;6.10;99.90;;;;;;5185833;28;20195;-50
2022/01/04 06:03:55;;;;;;;5.40;2.00;;;6.20;99.90;;;;;;5186971;28;20192;-51
2022/01/04 06:06:26;;;;;;;4.33;2.00;;;6.20;99.90;;;;;;5185946;28;20208;-51
2022/01/04 06:08:58;;;;;;;2.73;2.03;;;6.10;99.90;;;;;;5187009;28;20204;-50
2022/01/04 06:11:54;;;;;;;2.80;1.73;;;6.30;99.90;;;;;;5181357;28;20181;-51
2022/01/04 06:17:12;;;;;;;7.00;3.50;;;6.60;99.90;;;;;;5177353;28;20917;-51
2022/01/04 06:19:43;;;;;;;3.53;1.93;;;6.70;99.90;;;;;;5184558;28;20981;-51
2022/01/04 06:22:14;;;;;;;2.63;2.43;;;6.70;99.90;;;;;;5168147;28;20431;-50
2022/01/04 06:24:44;;;;;;;3.20;2.30;;;6.80;99.90;;;;;;5188694;28;20644;-49
2022/01/04 06:27:15;;;;;;;3.20;2.93;;;6.80;99.90;;;;;;5177018;28;20248;-50
2022/01/04 06:29:46;;;;;;;4.43;1.80;;;6.80;99.90;;;;;;5155905;28;20234;-51
2022/01/04 06:32:17;;;;;;;5.03;2.67;;;6.60;99.90;;;;;;5172888;28;20184;-53
2022/01/04 06:34:47;;;;;;;11.57;3.13;;;6.70;99.90;;;;;;5170887;28;20184;-52
2022/01/04 06:37:18;;;;;;;3.03;2.80;;;6.50;99.90;;;;;;5182164;28;20446;-51
2022/01/04 06:39:48;;;;;;;7.53;2.93;;;6.40;99.90;;;;;;5177905;28;20221;-51
2022/01/04 06:42:19;;;;;;;2.97;2.73;;;6.50;99.90;;;;;;5180367;28;20270;-51
2022/01/04 06:44:50;;;;;;;8.80;3.20;;;6.50;99.90;;;;;;5185459;28;20644;-50
2022/01/04 06:47:20;;;;;;;3.30;3.10;;;6.40;99.90;;;;;;5188282;28;20711;-52
2022/01/04 06:49:51;;;;;;;4.73;3.73;;;6.40;99.90;;;;;;5185719;28;20727;-51
2022/01/04 06:52:21;;;;;;;9.13;4.50;;;6.40;99.90;;;;;;5186627;28;20184;-52
2022/01/04 06:54:51;;;;;;;10.70;4.20;;;6.50;99.90;;;;;;5189955;28;20551;-51
2022/01/04 06:57:22;;;;;;;5.70;3.40;;;6.50;99.90;;;;;;5186265;28;20196;-52
2022/01/04 06:59:53;;;;;;;3.90;3.53;;;6.50;99.90;;;;;;5182381;28;20288;-52
2022/01/04 07:02:23;;;;;;;3.37;3.17;;;6.50;99.90;;;;;;5160061;28;20199;-51
2022/01/04 07:04:54;;;;;;;9.77;3.70;;;6.40;99.90;;;;;;5182725;28;20559;-52
2022/01/04 07:07:24;;;;;;;8.20;4.20;;;6.40;99.90;;;;;;5151451;28;20223;-51
2022/01/04 07:09:55;;;;;;;7.70;4.63;;;6.40;99.90;;;;;;5179905;28;20219;-51
2022/01/04 07:12:25;;;;;;;8.77;4.87;;;6.50;99.90;;;;;;5183316;28;20559;-50
2022/01/04 07:14:56;;;;;;;5.80;4.70;;;6.50;99.90;;;;;;5176639;28;20712;-52
2022/01/04 07:17:27;;;;;;;6.97;4.50;;;6.50;99.90;;;;;;5162587;28;20177;-51
2022/01/04 07:19:58;;;;;;;13.73;6.73;;;6.70;99.90;;;;;;5167827;28;20200;-50
2022/01/04 07:22:28;;;;;;;8.43;4.63;;;6.70;99.90;;;;;;5180404;28;20437;-51
2022/01/04 07:24:59;;;;;;;4.60;4.20;;;6.70;99.90;;;;;;5179545;28;20188;-50
2022/01/04 07:27:30;;;;;;;8.73;5.17;;;6.80;99.90;;;;;;5165181;28;20230;-54
2022/01/04 07:30:00;;;;;;;6.53;4.43;;;6.70;99.90;;;;;;5187309;28;20603;-51
2022/01/04 07:32:31;;;;;;;6.43;4.00;;;6.80;99.90;;;;;;5163234;28;20435;-50
2022/01/04 07:35:02;;;;;;;5.57;5.00;;;6.80;99.90;;;;;;5182957;28;20260;-50
2022/01/04 07:37:32;;;;;;;6.87;4.87;;;6.90;99.90;;;;;;5168463;28;20246;-49
2022/01/04 07:40:04;;;;;;;10.10;4.70;;;6.90;99.90;;;;;;5185688;28;20350;-50
2022/01/04 07:42:34;;;;;;;6.00;4.37;;;7.00;99.90;;;;;;5181964;28;20211;-52
2022/01/04 07:45:05;;;;;;;8.00;5.00;;;7.00;99.90;;;;;;5189656;28;20557;-50
2022/01/04 07:47:37;;;;;;;11.20;4.20;;;7.10;99.90;;;;;;5181194;28;20767;-53
2022/01/04 07:50:10;;;;;;;7.07;4.37;;;7.10;99.90;;;;;;5177644;28;20866;-51
2022/01/04 07:52:40;;;;;;;8.03;4.17;;;7.20;99.90;;;;;;5178062;28;20778;-51
2022/01/04 07:55:11;;;;;;;5.27;4.70;;;7.20;99.90;;;;;;5175904;28;21125;-50
2022/01/04 07:57:44;;;;;;;7.73;4.27;;;7.20;99.90;;;;;;5157776;28;20226;-51
2022/01/04 08:00:15;;;;;;;7.10;4.43;;;7.20;99.90;;;;;;5178439;28;20196;-52
2022/01/04 08:02:46;;;;;;;6.27;3.70;;;7.30;99.90;;;;;;5181951;28;20435;-51
2022/01/04 08:05:17;;;;;;;5.80;3.90;;;7.50;99.90;;;;;;5163445;28;20436;-52
2022/01/04 08:07:48;;;;;;;10.70;3.93;;;7.40;99.90;;;;;;5180400;28;20188;-50
2022/01/04 08:10:19;;;;;;;7.10;3.57;;;7.40;99.90;;;;;;5180097;28;20294;-51
2022/01/04 08:12:49;;;;;;;10.93;3.57;;;7.30;99.90;;;;;;5178423;28;20188;-53
2022/01/04 08:15:20;;;;;;;8.40;3.90;;;7.40;99.90;;;;;;5176407;28;20462;-50
2022/01/04 08:17:50;;;;;;;3.00;2.80;;;7.30;99.90;;;;;;5161796;28;20192;-51
2022/01/04 08:20:21;;;;;;;3.77;3.47;;;7.30;99.90;;;;;;5179248;28;20207;-50
2022/01/04 08:22:52;;;;;;;3.80;3.13;;;7.30;99.90;;;;;;5167402;28;20195;-51
2022/01/04 08:25:22;;;;;;;3.27;3.07;;;7.40;99.90;;;;;;5164451;28;20224;-50
2022/01/04 08:27:53;;;;;;;4.17;2.80;;;7.40;99.90;;;;;;5179588;28;20184;-52
2022/01/04 08:30:24;;;;;;;3.33;3.03;;;7.50;99.90;;;;;;5183120;28;20243;-51
2022/01/04 08:32:54;;;;;;;3.20;2.97;;;7.40;99.90;;;;;;5181688;28;20274;-51
2022/01/04 08:35:25;;;;;;;5.17;3.23;;;7.50;99.90;;;;;;5173856;28;20519;-56
2022/01/04 08:37:56;;;;;;;5.40;3.20;;;7.50;99.90;;;;;;5179984;28;20216;-51
2022/01/04 08:40:26;;;;;;;4.00;3.57;;;7.60;99.90;;;;;;5182864;28;20211;-51
2022/01/04 08:42:57;;;;;;;7.40;3.57;;;7.60;99.90;;;;;;5165022;28;20565;-51
2022/01/04 08:45:27;;;;;;;6.50;3.77;;;7.60;99.90;;;;;;5166208;28;20185;-51
2022/01/04 08:47:59;;;;;;;2.70;2.60;;;7.60;99.90;;;;;;5182767;28;20226;-52
2022/01/04 08:50:29;;;;;;;4.53;3.77;;;7.60;99.90;;;;;;5175666;28;20200;-51
2022/01/04 08:53:00;;;;;;;4.67;2.83;;;7.70;99.90;;;;;;5166447;28;20432;-51
2022/01/04 08:55:30;;;;;;;2.57;2.47;;;7.70;99.90;;;;;;5180457;28;20180;-52
2022/01/04 08:58:01;;;;;;;5.10;2.67;;;7.70;99.90;;;;;;5161481;28;20581;-52
2022/01/04 09:00:32;;;;;;;2.97;2.77;;;7.80;99.90;;;;;;5162201;28;20294;-50
2022/01/04 09:03:03;;;;;;;2.60;2.13;;;7.90;99.90;;;;;;5165895;28;20185;-52
2022/01/04 09:05:33;;;;;;;2.23;2.20;;;7.80;99.90;;;;;;5157692;28;20223;-52
2022/01/04 09:08:04;;;;;;;4.40;2.70;;;7.90;99.90;;;;;;5173614;28;20439;-52
2022/01/04 09:10:35;;;;;;;4.17;3.37;;;7.90;99.90;;;;;;5172558;28;20244;-52
2022/01/04 09:13:14;;;;;;;2.00;1.90;;;8.20;99.90;;;;;;5172995;28;20743;-50
2022/01/04 09:18:42;;;;;;;2.10;1.90;;;8.10;99.90;;;;;;5158971;28;20276;-51
2022/01/04 09:18:43;;;;;;;5.87;3.13;;;8.10;99.90;;;;;;5172985;28;20570;-51
2022/01/04 09:21:16;;;;;;;3.07;2.30;;;8.00;99.90;;;;;;5172536;28;20430;-53
2022/01/04 09:23:48;;;;;;;2.73;2.50;;;8.00;99.90;;;;;;5180508;28;20431;-50
2022/01/04 09:26:19;;;;;;;4.13;2.80;;;8.00;99.90;;;;;;5165036;28;20447;-52
2022/01/04 09:28:50;;;;;;;2.57;2.40;;;8.00;99.90;;;;;;5179632;28;20474;-50
2022/01/04 09:31:23;;;;;;;2.73;2.20;;;8.00;99.90;;;;;;5181313;28;20173;-50
2022/01/04 09:33:55;;;;;;;2.30;2.20;;;8.00;99.90;;;;;;5180553;28;20196;-52
2022/01/04 09:36:32;;;;;;;2.73;2.63;;;8.00;99.90;;;;;;5177343;28;20450;-50
2022/01/04 09:39:05;;;;;;;2.50;2.33;;;7.90;99.90;;;;;;5182675;28;20462;-51
2022/01/04 09:41:36;;;;;;;6.07;2.03;;;7.90;99.90;;;;;;5179630;28;20428;-51
2022/01/04 09:44:06;;;;;;;8.13;2.30;;;7.90;99.90;;;;;;5165768;28;20458;-52
2022/01/04 09:46:38;;;;;;;2.93;2.83;;;7.80;99.90;;;;;;5169170;28;20204;-51
2022/01/04 09:49:11;;;;;;;3.60;2.30;;;7.80;99.90;;;;;;5185223;28;20377;-51
2022/01/04 09:51:43;;;;;;;2.17;2.07;;;7.70;99.90;;;;;;5153594;28;20423;-50
2022/01/04 09:54:22;;;;;;;2.20;2.10;;;7.70;99.90;;;;;;5187868;28;20439;-50
2022/01/04 09:56:54;;;;;;;3.57;2.90;;;7.60;99.90;;;;;;5181778;28;20446;-50
2022/01/04 09:59:24;;;;;;;5.50;3.30;;;7.70;99.90;;;;;;5182483;28;20836;-50
2022/01/04 10:02:02;;;;;;;3.97;3.30;;;7.60;99.90;;;;;;5166736;28;20441;-52
2022/01/04 10:04:33;;;;;;;4.13;3.23;;;7.70;99.90;;;;;;5187219;28;20183;-50
2022/01/04 10:07:05;;;;;;;3.50;3.20;;;7.60;99.90;;;;;;5181664;28;20494;-51
2022/01/04 10:09:44;;;;;;;4.50;3.83;;;7.60;99.90;;;;;;5183355;28;21013;-51
2022/01/04 10:12:17;;;;;;;5.17;3.30;;;7.80;99.90;;;;;;5184677;28;20435;-51
2022/01/04 10:14:50;;;;;;;4.73;4.00;;;7.60;99.90;;;;;;5162282;28;20431;-53
2022/01/04 10:17:28;;;;;;;6.57;4.00;;;7.60;99.90;;;;;;5175261;28;20435;-51
2022/01/04 10:20:00;;;;;;;5.07;3.60;;;7.70;99.90;;;;;;5153206;28;20462;-50
2022/01/04 10:22:35;;;;;;;8.90;5.37;;;7.70;99.90;;;;;;5180642;28;20450;-51
2022/01/04 10:25:05;;;;;;;9.20;6.10;;;7.80;99.90;;;;;;5162463;28;20441;-50
2022/01/04 10:27:42;;;;;;;4.43;3.87;;;7.80;99.90;;;;;;5175712;28;21266;-53
2022/01/04 10:30:20;;;;;;;2.97;2.77;;;7.80;99.90;;;;;;5154943;28;20200;-50
2022/01/04 10:32:55;;;;;;;5.13;3.63;;;7.60;99.90;;;;;;5181577;28;20443;-50
2022/01/04 10:35:37;;;;;;;4.27;3.23;;;7.60;99.90;;;;;;5163419;28;20521;-52
2022/01/04 10:38:11;;;;;;;2.87;2.60;;;7.50;99.90;;;;;;5184772;28;20489;-52
2022/01/04 10:40:47;;;;;;;4.17;2.80;;;7.50;99.90;;;;;;5164752;28;20885;-53
2022/01/04 10:43:20;;;;;;;5.20;4.30;;;7.50;99.90;;;;;;5176349;28;20438;-52
2022/01/04 10:45:51;;;;;;;8.10;4.77;;;7.70;99.90;;;;;;5184898;28;20443;-50
2022/01/04 10:48:26;;;;;;;23.90;6.30;;;7.50;99.90;;;;;;5177820;28;20435;-52
2022/01/04 10:51:03;;;;;;;11.20;5.90;;;7.50;99.90;;;;;;5181150;28;20442;-52
2022/01/04 10:53:54;;;;;;;5.93;3.67;;;7.50;99.90;;;;;;5188301;28;20438;-52
2022/01/04 10:56:33;;;;;;;4.70;3.00;;;7.40;99.90;;;;;;5184983;28;20439;-52
2022/01/04 10:59:06;;;;;;;3.77;3.37;;;7.40;99.90;;;;;;5176138;28;20459;-52
2022/01/04 11:01:41;;;;;;;5.43;2.97;;;7.40;99.90;;;;;;5159752;28;20533;-53
2022/01/04 11:04:14;;;;;;;3.23;2.67;;;7.40;99.90;;;;;;5183960;28;20541;-52
2022/01/04 11:06:46;;;;;;;2.37;2.27;;;7.30;99.90;;;;;;5180608;28;20454;-51
2022/01/04 11:09:19;;;;;;;4.83;3.37;;;7.40;99.90;;;;;;5168351;28;20459;-50
2022/01/04 11:11:49;;;;;;;5.23;2.60;;;7.40;99.90;;;;;;5184109;28;20435;-53
2022/01/04 11:14:21;;;;;;;6.43;3.53;;;7.40;99.90;;;;;;5185721;28;20970;-52
2022/01/04 11:16:52;;;;;;;4.20;3.30;;;7.50;99.90;;;;;;5165019;28;20308;-50
2022/01/04 11:19:23;;;;;;;4.30;2.70;;;7.40;99.90;;;;;;5184238;28;20451;-51
2022/01/04 11:21:59;;;;;;;3.07;2.87;;;7.40;99.90;;;;;;5185380;28;20443;-52
2022/01/04 11:24:29;;;;;;;4.50;2.30;;;7.40;99.90;;;;;;5183605;28;20318;-52
2022/01/04 11:27:02;;;;;;;5.60;2.80;;;7.30;99.90;;;;;;5185319;28;20553;-51
2022/01/04 11:29:40;;;;;;;2.23;2.13;;;7.30;99.90;;;;;;5185746;28;20223;-52
2022/01/04 11:32:16;;;;;;;2.70;2.60;;;7.30;99.90;;;;;;5181516;28;20463;-53
2022/01/04 11:35:19;;;;;;;3.40;3.20;;;7.20;99.90;;;;;;5181082;28;20442;-51
2022/01/04 11:37:58;;;;;;;7.13;4.33;;;7.20;99.90;;;;;;5186767;28;20498;-50
2022/01/04 11:40:31;;;;;;;3.47;3.13;;;7.20;99.90;;;;;;5179526;28;20561;-55
2022/01/04 11:43:04;;;;;;;2.67;2.50;;;7.20;99.90;;;;;;5187438;28;20431;-53
2022/01/04 11:45:44;;;;;;;7.67;3.60;;;7.20;99.90;;;;;;5176281;28;20997;-52
2022/01/04 11:48:25;;;;;;;5.33;4.20;;;7.30;99.90;;;;;;5164274;28;20435;-51
2022/01/04 11:51:19;;;;;;;6.70;3.97;;;7.30;99.90;;;;;;5178706;28;20448;-51
2022/01/04 11:54:17;;;;;;;3.73;3.07;;;7.30;99.90;;;;;;5163973;28;20439;-52
2022/01/04 11:56:55;;;;;;;13.77;5.97;;;7.40;99.90;;;;;;5181520;28;20593;-51
2022/01/04 11:59:31;;;;;;;11.33;4.57;;;7.50;99.90;;;;;;5168004;28;20989;-52
2022/01/04 12:02:26;;;;;;;8.00;3.03;;;7.30;99.90;;;;;;5161820;28;20471;-52
2022/01/04 12:05:01;;;;;;;4.83;3.30;;;7.30;99.90;;;;;;5178902;28;20439;-51
2022/01/04 12:07:45;;;;;;;3.60;3.10;;;7.30;99.90;;;;;;5176875;28;20913;-49
2022/01/04 12:10:36;;;;;;;3.60;3.30;;;7.30;99.90;;;;;;5178834;23;20988;-53
2022/01/04 12:13:14;;;;;;;5.23;3.90;;;7.30;99.90;;;;;;5149962;28;20527;-52
2022/01/04 12:15:52;;;;;;;5.17;3.77;;;7.40;99.90;;;;;;5143707;28;20487;-52
2022/01/04 12:18:22;;;;;;;3.47;3.17;;;7.40;99.90;;;;;;5139320;28;20455;-52
2022/01/04 12:20:55;;;;;;;3.20;2.50;;;7.40;99.90;;;;;;5144856;28;20855;-55
2022/01/04 12:23:25;;;;;;;2.87;2.70;;;7.40;99.90;;;;;;5127982;28;20182;-54
2022/01/04 12:26:02;;;;;;;5.63;3.13;;;7.50;99.90;;;;;;5136050;28;20537;-53
2022/01/04 12:28:40;;;;;;;4.60;2.83;;;7.50;99.90;;;;;;5148593;28;20717;-53
2022/01/04 12:31:16;;;;;;;7.30;3.63;;;7.40;99.90;;;;;;5147411;28;20456;-51
2022/01/04 12:33:49;;;;;;;9.30;5.07;;;7.30;99.90;;;;;;5130057;28;20512;-52
2022/01/04 12:36:41;;;;;;;4.23;3.60;;;7.30;99.90;;;;;;5146713;28;20972;-52
2022/01/04 12:39:17;;;;;;;5.17;4.57;;;7.30;99.90;;;;;;5139324;28;20525;-51
2022/01/04 12:41:51;;;;;;;11.70;7.10;;;7.30;99.90;;;;;;5131177;28;20476;-53
2022/01/04 12:44:25;;;;;;;3.20;3.03;;;7.40;99.90;;;;;;5144414;28;20443;-52
2022/01/04 12:46:58;;;;;;;2.63;2.50;;;7.30;99.90;;;;;;5148002;28;20463;-53
2022/01/04 12:49:31;;;;;;;3.60;3.37;;;7.30;99.90;;;;;;5145268;28;20447;-52
2022/01/04 12:52:06;;;;;;;3.90;3.60;;;7.40;99.90;;;;;;5147242;28;20461;-52
2022/01/04 12:54:39;;;;;;;3.23;2.93;;;7.30;99.90;;;;;;5133667;28;20451;-53
2022/01/04 12:57:16;;;;;;;2.83;2.73;;;7.40;99.90;;;;;;5151829;28;20783;-51
2022/01/04 12:59:55;;;;;;;4.03;3.50;;;7.30;99.90;;;;;;5118503;28;20490;-53
2022/01/04 13:02:30;;;;;;;3.23;3.03;;;7.30;99.90;;;;;;5150148;28;20483;-52
2022/01/04 13:05:06;;;;;;;3.60;3.40;;;7.30;99.90;;;;;;5147809;28;20472;-53
2022/01/04 13:07:39;;;;;;;5.60;4.07;;;7.30;99.90;;;;;;5152041;28;21054;-54
2022/01/04 13:10:12;;;;;;;4.53;3.60;;;7.30;99.90;;;;;;5144536;28;20505;-55
2022/01/04 13:12:45;;;;;;;5.67;3.80;;;7.30;99.90;;;;;;5146650;28;20432;-54
2022/01/04 13:15:20;;;;;;;20.40;4.23;;;7.30;99.90;;;;;;5131786;28;20551;-53
2022/01/04 13:17:55;;;;;;;6.43;4.60;;;7.30;99.90;;;;;;5146905;28;20841;-53
2022/01/04 13:20:34;;;;;;;5.07;4.10;;;7.30;99.90;;;;;;5136060;28;20458;-52
2022/01/04 13:23:14;;;;;;;4.17;3.90;;;7.40;99.90;;;;;;5147389;28;20576;-52
2022/01/04 13:25:44;;;;;;;4.60;4.10;;;7.40;99.90;;;;;;5147735;28;20575;-52
2022/01/04 13:28:20;;;;;;;3.43;3.13;;;7.40;99.90;;;;;;5142192;28;20531;-52